createdAt,value
2022-11-21T00:01:19.711Z,100072.34
2022-11-21T00:03:48.179Z,100085.06
2022-11-21T00:06:16.549Z,100081.41
2022-11-21T00:08:45.045Z,100082.75
2022-11-21T00:11:14.297Z,100088.37
2022-11-21T00:13:42.662Z,100089.44
2022-11-21T00:16:13.516Z,100087.97
2022-11-21T00:18:42.350Z,100093.38
2022-11-21T00:21:18.264Z,100079.97
2022-11-21T00:23:47.444Z,100075.81
2022-11-21T00:26:16.455Z,100075.28
2022-11-21T00:28:45.270Z,100063.97
2022-11-21T00:31:23.579Z,100050.78
2022-11-21T00:33:51.292Z,100046.63
2022-11-21T00:36:19.071Z,100047.94
2022-11-21T00:38:46.587Z,100041.75
2022-11-21T00:41:14.261Z,100038.66
2022-11-21T00:43:41.973Z,100037.09
2022-11-21T00:46:09.486Z,100025.34
2022-11-21T00:48:36.956Z,100026.34
2022-11-21T00:51:04.722Z,100027.28
2022-11-21T00:53:32.256Z,100038.03
2022-11-21T00:55:59.729Z,100026.94
2022-11-21T00:58:30.968Z,100026.19
2022-11-21T01:01:11.284Z,100021.72
2022-11-21T01:03:40.804Z,100015.88
2022-11-21T01:06:10.875Z,100023.41
2022-11-21T01:08:40.894Z,100016.84
2022-11-21T01:11:12.300Z,100014.38
2022-11-21T01:13:40.420Z,100012.47
2022-11-21T01:16:10.766Z,100012.47
2022-11-21T01:18:39.513Z,100009.47
2022-11-21T01:21:12.660Z,100002.91
2022-11-21T01:23:41.149Z,100000.41
2022-11-21T01:26:12.400Z,100001.16
2022-11-21T01:28:40.561Z,100001.88
2022-11-21T01:31:10.505Z,99996.88
2022-11-21T01:33:38.520Z,99999.59
2022-11-21T01:36:07.347Z,99991.03
2022-11-21T01:38:35.009Z,100001.66
2022-11-21T01:41:02.588Z,99997.78
2022-11-21T01:43:30.272Z,100002.78
2022-11-21T01:46:00.422Z,100000.22
2022-11-21T01:49:08.519Z,100006.72
2022-11-21T01:51:51.240Z,99998.34
2022-11-21T01:54:24.807Z,99993.25
2022-11-21T01:57:14.503Z,99990.25
2022-11-21T01:59:42.048Z,99983.91
2022-11-21T02:02:12.701Z,99991.81
2022-11-21T02:04:43.392Z,99985.03
2022-11-21T02:07:13.384Z,99990.34
2022-11-21T02:09:44.737Z,99993.97
2022-11-21T02:12:21.459Z,99995.22
2022-11-21T02:14:50.224Z,100002.41
2022-11-21T02:17:18.488Z,100001.25
2022-11-21T02:19:48.680Z,99994.84
2022-11-21T02:22:31.470Z,99994.19
2022-11-21T02:25:09.768Z,99991.50
2022-11-21T02:27:38.141Z,99996.78
2022-11-21T02:30:08.064Z,99988.47
2022-11-21T02:32:39.368Z,99984.72
2022-11-21T02:35:08.108Z,99983.38
2022-11-21T02:37:37.272Z,99980.16
2022-11-21T02:40:15.763Z,99972.47
2022-11-21T02:43:02.778Z,99964.69
2022-11-21T02:45:40.400Z,99965.50
2022-11-21T02:48:08.192Z,99970.72
2022-11-21T02:50:38.035Z,99964.69
2022-11-21T02:53:07.942Z,99953.53
2022-11-21T02:55:35.719Z,99957.72
2022-11-21T02:58:05.194Z,99954.41
2022-11-21T03:00:34.481Z,99952.50
2022-11-21T03:03:02.592Z,99952.50
2022-11-21T03:05:30.374Z,99953.75
2022-11-21T03:07:57.872Z,99952.00
2022-11-21T03:10:25.864Z,99949.41
2022-11-21T03:13:00.992Z,99946.38
2022-11-21T03:15:31.485Z,99941.19
2022-11-21T03:18:01.137Z,99944.69
2022-11-21T03:20:30.517Z,99943.16
2022-11-21T03:22:57.996Z,99945.97
2022-11-21T03:25:25.524Z,99937.63
2022-11-21T03:27:54.306Z,99936.78
2022-11-21T03:30:23.030Z,99931.56
2022-11-21T03:32:50.602Z,99939.91
2022-11-21T03:35:18.530Z,99933.50
2022-11-21T03:37:48.919Z,99936.81
2022-11-21T03:40:16.435Z,99931.41
2022-11-21T03:42:44.344Z,99930.28
2022-11-21T03:45:11.832Z,99934.72
2022-11-21T03:47:39.304Z,99937.22
2022-11-21T03:50:07.753Z,99938.50
2022-11-21T03:52:35.265Z,99933.72
2022-11-21T03:55:02.657Z,99936.81
2022-11-21T03:57:30.424Z,99937.53
2022-11-21T03:59:57.855Z,99938.44
2022-11-21T04:02:25.355Z,99940.16
2022-11-21T04:04:53.224Z,99940.47
2022-11-21T04:07:20.803Z,99935.16
2022-11-21T04:09:48.289Z,99938.91
2022-11-21T04:12:16.071Z,99942.00
2022-11-21T04:14:43.417Z,99950.56
2022-11-21T04:17:10.827Z,99959.12
2022-11-21T04:19:38.620Z,99960.06
2022-11-21T04:22:06.056Z,99958.91
2022-11-21T04:24:33.520Z,99962.56
2022-11-21T04:27:01.289Z,99949.16
2022-11-21T04:29:28.708Z,99941.97
2022-11-21T04:31:56.227Z,99959.75
2022-11-21T04:34:23.917Z,99962.13
2022-11-21T04:36:51.313Z,99960.47
2022-11-21T04:39:18.737Z,99964.22
2022-11-21T04:41:46.479Z,99964.00
2022-11-21T04:44:13.901Z,99957.66
2022-11-21T04:46:41.352Z,99960.69
2022-11-21T04:49:09.403Z,99961.31
2022-11-21T04:51:36.814Z,99955.16
2022-11-21T04:54:04.269Z,99959.09
2022-11-21T04:56:32.047Z,99957.44
2022-11-21T04:59:00.001Z,99964.09
2022-11-21T05:01:27.424Z,99960.75
2022-11-21T05:03:55.147Z,99967.62
2022-11-21T05:06:22.629Z,99961.03
2022-11-21T05:08:52.854Z,99963.25
2022-11-21T05:11:40.696Z,99965.75
2022-11-21T05:14:08.101Z,99963.13
2022-11-21T05:16:35.913Z,99956.03
2022-11-21T05:19:03.447Z,99942.75
2022-11-21T05:21:30.873Z,99960.88
2022-11-21T05:23:58.729Z,99955.16
2022-11-21T05:26:26.177Z,99943.81
2022-11-21T05:28:53.912Z,99938.94
2022-11-21T05:31:21.706Z,99941.00
2022-11-21T05:33:49.177Z,99945.19
2022-11-21T05:36:16.706Z,99949.41
2022-11-21T05:38:44.480Z,99955.34
2022-11-21T05:41:12.047Z,99961.72
2022-11-21T05:43:49.069Z,99962.44
2022-11-21T05:46:23.280Z,99955.69
2022-11-21T05:48:53.167Z,99971.19
2022-11-21T05:51:21.752Z,99970.37
2022-11-21T05:53:49.240Z,99966.59
2022-11-21T05:56:18.928Z,99971.28
2022-11-21T05:58:46.840Z,99973.38
2022-11-21T06:01:14.805Z,99970.06
2022-11-21T06:03:42.952Z,99976.69
2022-11-21T06:06:12.688Z,99978.37
2022-11-21T06:08:42.668Z,99982.03
2022-11-21T06:11:12.850Z,99985.97
2022-11-21T06:13:40.811Z,99989.19
2022-11-21T06:16:11.666Z,99987.72
2022-11-21T06:18:44.985Z,99985.13
2022-11-21T06:21:23.900Z,99993.56
2022-11-21T06:23:56.835Z,99993.13
2022-11-21T06:26:26.583Z,99992.09
2022-11-21T06:28:54.832Z,100000.53
2022-11-21T06:31:25.315Z,100000.72
2022-11-21T06:33:54.693Z,99995.94
2022-11-21T06:36:22.473Z,99995.66
2022-11-21T06:38:50.001Z,100007.31
2022-11-21T06:41:19.871Z,100002.81
2022-11-21T06:43:47.904Z,100000.00
2022-11-21T06:46:16.117Z,99995.78
2022-11-21T06:48:44.458Z,100018.84
2022-11-21T06:51:25.143Z,100010.63
2022-11-21T06:53:58.211Z,100006.06
2022-11-21T06:56:28.049Z,100013.09
2022-11-21T06:58:56.274Z,100014.56
2022-11-21T07:01:24.444Z,100011.75
2022-11-21T07:03:53.004Z,100002.28
2022-11-21T07:06:20.658Z,100007.19
2022-11-21T07:09:00.074Z,100013.72
2022-11-21T07:11:36.043Z,100015.94
2022-11-21T07:14:08.824Z,100019.75
2022-11-21T07:16:37.288Z,100017.13
2022-11-21T07:19:04.956Z,100017.81
2022-11-21T07:21:33.069Z,100012.06
2022-11-21T07:24:00.800Z,100011.34
2022-11-21T07:26:28.438Z,100020.56
2022-11-21T07:28:55.905Z,100014.72
2022-11-21T07:31:23.625Z,100018.25
2022-11-21T07:33:51.041Z,100021.06
2022-11-21T07:36:18.498Z,100016.84
2022-11-21T07:38:46.596Z,100020.16
2022-11-21T07:41:14.412Z,100028.03
2022-11-21T07:43:41.908Z,100024.25
2022-11-21T07:46:09.608Z,100025.56
2022-11-21T07:48:37.292Z,100017.13
2022-11-21T07:51:05.549Z,100018.03
2022-11-21T07:53:33.525Z,100005.28
2022-11-21T07:56:01.137Z,100011.81
2022-11-21T07:58:28.748Z,100004.31
2022-11-21T08:00:56.624Z,100011.97
2022-11-21T08:03:25.342Z,100000.84
2022-11-21T08:05:52.846Z,99999.09
2022-11-21T08:08:20.363Z,100007.22
2022-11-21T08:10:48.305Z,99999.00
2022-11-21T08:13:15.729Z,99985.97
2022-11-21T08:15:43.304Z,99968.84
2022-11-21T08:18:13.715Z,99970.78
2022-11-21T08:20:42.043Z,99981.19
2022-11-21T08:23:10.924Z,99996.72
2022-11-21T08:25:40.326Z,100004.31
2022-11-21T08:28:10.224Z,100005.84
2022-11-21T08:30:40.096Z,100002.06
2022-11-21T08:33:08.355Z,100001.75
2022-11-21T08:35:38.224Z,100000.94
2022-11-21T08:38:06.785Z,99998.19
2022-11-21T08:40:36.071Z,100004.50
2022-11-21T08:43:08.369Z,100001.88
2022-11-21T08:45:39.392Z,100003.78
2022-11-21T08:48:11.888Z,100009.72
2022-11-21T08:50:39.668Z,99999.19
2022-11-21T08:53:07.082Z,100019.56
2022-11-21T08:55:34.973Z,100039.00
2022-11-21T08:58:02.896Z,100037.84
2022-11-21T09:00:30.384Z,100040.09
2022-11-21T09:02:57.837Z,100039.50
2022-11-21T09:05:25.543Z,100041.75
2022-11-21T09:07:57.566Z,100043.63
2022-11-21T09:10:26.639Z,100037.56
2022-11-21T09:12:54.192Z,100042.69
2022-11-21T09:15:40.292Z,100043.41
2022-11-21T09:18:08.304Z,100034.16
2022-11-21T09:20:41.175Z,100040.31
2022-11-21T09:23:11.585Z,100031.91
2022-11-21T09:25:39.216Z,100024.56
2022-11-21T09:28:09.472Z,100021.13
2022-11-21T09:30:37.820Z,100016.84
2022-11-21T09:33:07.833Z,100016.47
2022-11-21T09:35:35.706Z,100010.41
2022-11-21T09:38:04.102Z,100007.66
2022-11-21T09:40:34.178Z,100004.38
2022-11-21T09:43:20.360Z,100001.84
2022-11-21T09:45:56.321Z,100001.41
2022-11-21T09:48:33.880Z,99997.50
2022-11-21T09:51:12.117Z,99980.47
2022-11-21T09:53:45.484Z,99984.69
2022-11-21T09:56:20.098Z,99989.44
2022-11-21T09:59:20.406Z,99991.03
2022-11-21T10:01:58.095Z,99998.25
2022-11-21T10:04:27.440Z,99997.53
2022-11-21T10:07:21.683Z,99989.75
2022-11-21T10:10:14.396Z,100011.25
2022-11-21T10:12:47.457Z,100013.28
2022-11-21T10:15:57.410Z,100016.97
2022-11-21T10:18:56.788Z,100007.59
2022-11-21T10:21:24.411Z,100014.88
2022-11-21T10:24:10.314Z,100012.31
2022-11-21T10:26:58.164Z,100012.88
2022-11-21T10:29:39.637Z,100015.41
2022-11-21T10:32:36.956Z,100011.66
2022-11-21T10:35:24.803Z,100005.00
2022-11-21T10:37:55.952Z,100004.72
2022-11-21T10:40:30.957Z,100002.56
2022-11-21T10:43:27.568Z,100009.69
2022-11-21T10:45:55.080Z,100006.00
2022-11-21T10:48:28.696Z,100023.44
2022-11-21T10:51:31.396Z,100001.84
2022-11-21T10:54:28.384Z,100005.50
2022-11-21T10:57:18.632Z,99998.91
2022-11-21T10:59:58.676Z,100002.25
2022-11-21T11:02:26.865Z,100002.31
2022-11-21T11:05:16.385Z,100003.56
2022-11-21T11:08:09.582Z,99994.84
2022-11-21T11:10:39.666Z,99990.56
2022-11-21T11:13:46.692Z,99994.19
2022-11-21T11:16:17.288Z,99996.72
2022-11-21T11:18:59.045Z,99992.81
2022-11-21T11:21:44.141Z,99982.12
2022-11-21T11:24:11.528Z,99983.53
2022-11-21T11:26:48.905Z,99988.53
2022-11-21T11:29:20.232Z,99995.75
2022-11-21T11:32:00.191Z,99987.50
2022-11-21T11:34:40.901Z,99989.47
2022-11-21T11:37:31.270Z,99986.97
2022-11-21T11:40:23.263Z,99993.28
2022-11-21T11:43:34.288Z,99985.09
2022-11-21T11:46:32.636Z,99987.31
2022-11-21T11:49:22.073Z,99988.41
2022-11-21T11:51:59.536Z,99986.72
2022-11-21T11:54:34.215Z,99984.13
2022-11-21T11:57:04.536Z,99983.72
2022-11-21T11:59:40.814Z,99983.19
2022-11-21T12:02:20.701Z,99977.94
2022-11-21T12:05:09.050Z,99978.41
2022-11-21T12:11:09.740Z,99978.00
2022-11-21T12:13:37.796Z,99980.44
2022-11-21T12:16:14.233Z,99978.47
2022-11-21T12:19:03.241Z,99976.03
2022-11-21T12:21:31.228Z,99984.56
2022-11-21T12:24:02.097Z,99987.56
2022-11-21T12:26:48.469Z,99983.69
2022-11-21T12:29:17.054Z,99984.94
2022-11-21T12:32:19.914Z,99982.44
2022-11-21T12:34:59.501Z,99980.34
2022-11-21T12:37:35.872Z,99984.38
2022-11-21T12:40:38.821Z,99981.47
2022-11-21T12:43:25.647Z,99975.94
2022-11-21T12:46:09.781Z,99975.22
2022-11-21T12:48:55.544Z,99981.19
2022-11-21T12:51:53.613Z,99971.66
2022-11-21T12:54:38.686Z,99974.97
2022-11-21T12:57:14.092Z,99960.50
2022-11-21T12:59:44.499Z,99968.78
2022-11-21T13:02:40.176Z,99961.91
2022-11-21T13:05:13.772Z,99961.91
2022-11-21T13:07:43.307Z,99953.63
2022-11-21T13:10:15.540Z,99960.00
2022-11-21T13:12:49.960Z,99957.50
2022-11-21T13:15:36.992Z,99958.22
2022-11-21T13:18:23.245Z,99955.44
2022-11-21T13:20:52.353Z,99954.50
2022-11-21T13:23:40.904Z,99951.16
2022-11-21T13:26:28.749Z,99956.97
2022-11-21T13:29:11.305Z,99967.84
2022-11-21T13:31:40.759Z,99964.25
2022-11-21T13:34:27.803Z,99966.47
2022-11-21T13:36:55.532Z,99968.09
2022-11-21T13:39:29.802Z,99968.66
2022-11-21T13:42:24.893Z,99969.09
2022-11-21T13:44:53.302Z,99973.47
2022-11-21T13:47:26.487Z,99970.87
2022-11-21T13:50:20.976Z,99976.09
2022-11-21T13:53:00.337Z,99976.63
2022-11-21T13:55:55.187Z,99976.78
2022-11-21T13:58:29.084Z,99982.72
2022-11-21T14:01:15.786Z,99982.12
2022-11-21T14:04:08.547Z,99987.94
2022-11-21T14:06:43.530Z,99985.69
2022-11-21T14:09:37.121Z,99988.59
2022-11-21T14:12:18.436Z,99990.09
2022-11-21T14:14:56.912Z,99990.09
2022-11-21T14:17:32.060Z,99991.03
2022-11-21T14:20:02.705Z,99990.78
2022-11-21T14:22:52.036Z,99992.97
2022-11-21T14:25:23.765Z,99997.25
2022-11-21T14:27:54.775Z,99998.06
2022-11-21T14:30:28.864Z,100003.44
2022-11-21T14:32:56.797Z,99995.84
2022-11-21T14:35:24.767Z,99995.00
2022-11-21T14:37:53.916Z,99998.72
2022-11-21T14:40:23.545Z,100000.66
2022-11-21T14:42:51.353Z,100005.91
2022-11-21T14:45:21.816Z,100001.59
2022-11-21T14:47:53.881Z,100009.87
2022-11-21T14:50:29.976Z,100009.97
2022-11-21T14:53:00.498Z,100015.94
2022-11-21T14:55:31.689Z,100016.31
2022-11-21T14:58:02.250Z,100010.25
2022-11-21T15:03:21.648Z,100020.28
2022-11-21T15:06:04.584Z,100017.22
2022-11-21T15:09:51.396Z,100022.03
2022-11-21T15:11:37.988Z,100019.41
2022-11-21T15:14:44.440Z,100015.88
2022-11-21T15:17:16.397Z,100015.31
2022-11-21T15:19:47.127Z,100014.75
2022-11-21T15:22:35.261Z,100021.44
2022-11-21T15:25:08.512Z,100017.69
2022-11-21T15:27:36.539Z,100017.81
2022-11-21T15:30:24.902Z,100033.06
2022-11-21T15:33:11.214Z,100026.09
2022-11-21T15:35:38.596Z,100023.16
2022-11-21T15:38:19.783Z,100029.97
2022-11-21T15:41:10.849Z,100031.78
2022-11-21T15:43:49.796Z,100028.97
2022-11-21T15:46:19.960Z,100030.97
2022-11-21T15:48:53.649Z,100024.25
2022-11-21T15:51:51.307Z,100029.38
2022-11-21T15:54:19.736Z,100029.53
2022-11-21T15:56:47.551Z,100023.84
2022-11-21T15:59:15.920Z,100024.41
2022-11-21T16:01:43.373Z,100024.66
2022-11-21T16:04:12.735Z,100014.84
2022-11-21T16:06:40.332Z,100015.66
2022-11-21T16:09:07.899Z,100004.97
2022-11-21T16:11:37.398Z,100017.19
2022-11-21T16:14:06.500Z,100015.66
2022-11-21T16:16:42.705Z,100017.44
2022-11-21T16:19:12.041Z,100011.50
2022-11-21T16:21:39.880Z,100012.34
2022-11-21T16:24:07.897Z,100007.69
2022-11-21T16:26:35.787Z,100009.13
2022-11-21T16:29:05.798Z,100006.41
2022-11-21T16:31:33.776Z,100009.13
2022-11-21T16:34:01.603Z,100005.91
2022-11-21T16:36:31.324Z,100003.22
2022-11-21T16:39:07.772Z,100003.31
2022-11-21T16:41:39.381Z,99999.53
2022-11-21T16:44:14.016Z,99995.47
2022-11-21T16:46:43.464Z,99997.00
2022-11-21T16:49:10.993Z,100003.66
2022-11-21T16:51:38.401Z,100001.75
2022-11-21T16:54:09.153Z,100001.50
2022-11-21T16:56:37.197Z,100009.47
2022-11-21T16:59:04.841Z,100003.03
2022-11-21T17:01:32.837Z,99988.00
2022-11-21T17:04:00.469Z,99998.28
2022-11-21T17:06:30.375Z,99999.94
2022-11-21T17:09:02.680Z,99993.56
2022-11-21T17:11:32.011Z,99997.22
2022-11-21T17:14:02.822Z,100003.41
2022-11-21T17:16:30.956Z,99996.16
2022-11-21T17:19:00.360Z,100004.56
2022-11-21T17:21:29.326Z,100001.72
2022-11-21T17:23:57.492Z,100002.22
2022-11-21T17:26:27.540Z,99990.97
2022-11-21T17:29:00.805Z,99994.97
2022-11-21T17:31:28.483Z,99992.13
2022-11-21T17:33:57.815Z,99990.81
2022-11-21T17:36:28.080Z,99996.62
2022-11-21T17:38:57.520Z,100002.94
2022-11-21T17:41:27.401Z,100002.56
2022-11-21T17:43:59.680Z,99991.03
2022-11-21T17:46:28.426Z,99999.00
2022-11-21T17:48:58.848Z,99998.16
2022-11-21T17:51:30.590Z,99990.94
2022-11-21T17:53:59.604Z,100003.00
2022-11-21T17:56:30.797Z,100004.69
2022-11-21T17:58:58.853Z,100004.69
2022-11-21T18:01:26.788Z,100016.22
2022-11-21T18:04:00.108Z,100008.72
2022-11-21T18:06:39.114Z,100015.88
2022-11-21T18:09:07.893Z,100022.41
2022-11-21T18:11:39.910Z,100033.69
2022-11-21T18:14:12.884Z,100032.38
2022-11-21T18:16:44.712Z,100030.59
2022-11-21T18:19:15.926Z,100034.28
2022-11-21T18:21:43.317Z,100019.78
2022-11-21T18:24:11.120Z,100016.13
2022-11-21T18:26:39.523Z,100030.34
2022-11-21T18:31:57.648Z,100032.25
2022-11-21T18:34:25.128Z,100032.84
2022-11-21T18:36:53.753Z,100035.94
2022-11-21T18:39:25.192Z,100029.63
2022-11-21T18:41:53.008Z,100028.56
2022-11-21T18:44:22.585Z,100032.94
2022-11-21T18:46:51.215Z,100036.41
2022-11-21T18:49:19.124Z,100029.63
2022-11-21T18:51:48.339Z,100028.09
2022-11-21T18:54:17.236Z,100032.94
2022-11-21T18:56:45.134Z,100036.41
2022-11-21T18:59:12.884Z,100034.53
2022-11-21T19:01:40.992Z,100030.94
2022-11-21T19:04:09.330Z,100030.72
2022-11-21T19:06:37.064Z,100039.41
2022-11-21T19:09:05.468Z,100040.09
2022-11-21T19:11:34.504Z,100043.06
2022-11-21T19:14:02.193Z,100044.47
2022-11-21T19:16:31.449Z,100044.37
2022-11-21T19:19:32.272Z,100042.94
2022-11-21T19:21:48.093Z,100048.38
2022-11-21T19:24:16.780Z,100046.16
2022-11-21T19:26:44.476Z,100048.16
2022-11-21T19:29:12.865Z,100046.00
2022-11-21T19:31:45.300Z,100041.25
2022-11-21T19:34:15.110Z,100045.06
2022-11-21T19:36:43.656Z,100053.75
2022-11-21T19:39:11.896Z,100055.50
2022-11-21T19:41:40.557Z,100051.94
2022-11-21T19:44:08.392Z,100051.47
2022-11-21T19:46:38.417Z,100046.56
2022-11-21T19:49:07.901Z,100054.16
2022-11-21T19:51:38.118Z,100052.94
2022-11-21T19:54:07.899Z,100054.63
2022-11-21T19:56:36.356Z,100058.84
2022-11-21T19:59:05.037Z,100059.88
2022-11-21T20:01:34.922Z,100065.44
2022-11-21T20:04:05.488Z,100062.44
2022-11-21T20:06:41.417Z,100069.34
2022-11-21T20:09:11.602Z,100066.91
2022-11-21T20:11:41.627Z,100074.31
2022-11-21T20:14:09.808Z,100063.56
2022-11-21T20:16:40.484Z,100069.66
2022-11-21T20:19:10.740Z,100060.78
2022-11-21T20:21:39.372Z,100064.69
2022-11-21T20:24:07.599Z,100062.66
2022-11-21T20:26:36.545Z,100063.91
2022-11-21T20:29:05.573Z,100068.81
2022-11-21T20:31:36.974Z,100063.63
2022-11-21T20:34:13.129Z,100070.87
2022-11-21T20:36:42.398Z,100071.09
2022-11-21T20:39:15.931Z,100069.03
2022-11-21T20:41:45.305Z,100075.50
2022-11-21T20:47:09.670Z,100059.91
2022-11-21T20:49:37.969Z,100070.63
2022-11-21T20:54:54.595Z,100081.34
2022-11-21T20:57:22.384Z,100076.88
2022-11-21T20:59:50.115Z,100079.16
2022-11-21T21:02:18.054Z,100078.81
2022-11-21T21:04:45.861Z,100070.50
2022-11-21T21:07:13.426Z,100070.09
2022-11-21T21:09:41.262Z,100070.09
2022-11-21T21:12:08.836Z,100080.53
2022-11-21T21:14:36.683Z,100069.91
2022-11-21T21:17:04.722Z,100053.69
2022-11-21T21:19:32.550Z,100056.97
2022-11-21T21:22:00.985Z,100055.66
2022-11-21T21:24:28.807Z,100052.53
2022-11-21T21:26:56.416Z,100044.53
2022-11-21T21:29:23.870Z,100045.75
2022-11-21T21:31:52.741Z,100039.63
2022-11-21T21:34:22.294Z,100038.91
2022-11-21T21:36:51.324Z,100037.03
2022-11-21T21:39:19.228Z,100039.34
2022-11-21T21:41:47.512Z,100032.25
2022-11-21T21:44:16.055Z,100031.00
2022-11-21T21:46:44.357Z,100030.59
2022-11-21T21:49:11.828Z,100024.56
2022-11-21T21:51:40.060Z,100022.16
2022-11-21T21:54:15.697Z,100021.00
2022-11-21T21:56:43.497Z,100008.12
2022-11-21T21:59:11.260Z,100028.06
2022-11-21T22:01:39.387Z,100032.16
2022-11-21T22:04:07.157Z,100034.00
2022-11-21T22:06:35.520Z,100033.69
2022-11-21T22:09:03.659Z,100030.25
2022-11-21T22:11:35.176Z,100036.19
2022-11-21T22:14:06.001Z,100027.53
2022-11-21T22:16:33.894Z,100028.50
2022-11-21T22:19:01.469Z,100031.94
2022-11-21T22:21:34.296Z,100024.22
2022-11-21T22:26:52.414Z,100025.28
2022-11-21T22:29:20.202Z,100022.16
2022-11-21T22:31:47.656Z,100021.31
2022-11-21T22:34:15.137Z,100010.00
2022-11-21T22:36:43.443Z,100013.09
2022-11-21T22:39:10.879Z,100015.19
2022-11-21T22:41:38.349Z,100008.53
2022-11-21T22:44:06.660Z,99998.97
2022-11-21T22:46:34.132Z,99994.31
2022-11-21T22:49:01.858Z,99993.25
2022-11-21T22:51:29.968Z,99996.91
2022-11-21T22:53:57.620Z,99998.03
2022-11-21T22:56:26.081Z,99994.81
2022-11-21T22:58:54.531Z,99993.06
2022-11-21T23:01:24.159Z,99993.69
2022-11-21T23:03:52.537Z,99991.72
2022-11-21T23:06:23.568Z,99998.12
2022-11-21T23:08:53.199Z,99993.06
2022-11-21T23:11:23.325Z,99989.62
2022-11-21T23:13:52.159Z,99990.66
2022-11-21T23:16:22.050Z,99987.13
2022-11-21T23:18:53.072Z,99978.91
2022-11-21T23:21:21.599Z,99977.56
2022-11-21T23:23:49.107Z,99976.66
2022-11-21T23:26:17.223Z,99981.31
2022-11-21T23:28:44.724Z,99978.81
2022-11-21T23:31:12.237Z,99975.47
2022-11-21T23:33:39.936Z,99972.88
2022-11-21T23:36:07.595Z,99974.84
2022-11-21T23:38:35.060Z,99973.28
2022-11-21T23:41:02.802Z,99968.09
2022-11-21T23:43:30.488Z,99966.03
2022-11-21T23:45:57.925Z,99963.84
2022-11-21T23:48:26.152Z,99966.78
2022-11-21T23:50:53.856Z,99965.09
2022-11-21T23:53:22.293Z,99960.03
2022-11-21T23:55:50.033Z,99959.47
2022-11-21T23:58:17.766Z,99949.28
